createdAt,value
2018-03-06T00:00:51.259Z,5.68
2018-03-06T00:01:51.844Z,5.66
2018-03-06T00:02:51.545Z,5.66
2018-03-06T00:03:51.567Z,5.64
2018-03-06T00:04:51.598Z,5.64
2018-03-06T00:05:52.460Z,5.65
2018-03-06T00:06:51.622Z,5.65
2018-03-06T00:07:51.350Z,5.69
2018-03-06T00:08:51.360Z,5.68
2018-03-06T00:09:52.335Z,5.64
2018-03-06T00:10:51.132Z,5.62
2018-03-06T00:11:51.679Z,5.53
2018-03-06T00:12:51.763Z,5.48
2018-03-06T00:13:51.945Z,5.56
2018-03-06T00:14:51.747Z,5.33
2018-03-06T00:15:51.470Z,5.41
2018-03-06T00:16:51.901Z,5.36
2018-03-06T00:17:52.535Z,5.53
2018-03-06T00:18:51.806Z,5.46
2018-03-06T00:19:51.829Z,5.44
2018-03-06T00:20:51.559Z,5.51
2018-03-06T00:21:51.863Z,5.54
2018-03-06T00:22:51.590Z,5.51
2018-03-06T00:23:51.935Z,5.46
2018-03-06T00:24:51.337Z,5.48
2018-03-06T00:25:51.354Z,5.35
2018-03-06T00:26:52.060Z,5.43
2018-03-06T00:27:51.431Z,5.48
2018-03-06T00:28:51.392Z,5.46
2018-03-06T00:29:51.944Z,5.43
2018-03-06T00:30:51.421Z,5.39
2018-03-06T00:31:53.801Z,5.39
2018-03-06T00:32:51.720Z,5.39
2018-03-06T00:33:52.018Z,5.29
2018-03-06T00:34:52.032Z,5.25
2018-03-06T00:35:52.730Z,5.12
2018-03-06T00:36:51.775Z,5.1
2018-03-06T00:37:51.791Z,5.12
2018-03-06T00:38:51.802Z,5.21
2018-03-06T00:39:53.916Z,5.25
2018-03-06T00:40:51.883Z,5.29
2018-03-06T00:41:52.126Z,5.23
2018-03-06T00:42:52.767Z,5.25
2018-03-06T00:43:51.935Z,5.25
2018-03-06T00:44:52.180Z,5.1
2018-03-06T00:45:53.819Z,5.2
2018-03-06T00:46:52.201Z,5.25
2018-03-06T00:47:52.218Z,5.23
2018-03-06T00:48:52.238Z,5.28
2018-03-06T00:49:52.824Z,5.25
2018-03-06T00:50:51.970Z,5.38
2018-03-06T00:51:52.255Z,5.39
2018-03-06T00:52:53.984Z,5.41
2018-03-06T00:53:52.281Z,5.3
2018-03-06T00:54:52.048Z,5.35
2018-03-06T00:55:51.774Z,5.35
2018-03-06T00:56:52.338Z,5.25
2018-03-06T00:57:52.368Z,5.28
2018-03-06T00:58:52.398Z,5.36
2018-03-06T00:59:53.840Z,5.28
2018-03-06T01:00:52.375Z,5.18
2018-03-06T01:01:52.160Z,5.23
2018-03-06T01:02:53.013Z,5.29
2018-03-06T01:03:52.629Z,5.29
2018-03-06T01:04:52.197Z,5.36
2018-03-06T01:05:52.470Z,5.33
2018-03-06T01:06:54.162Z,5.26
2018-03-06T01:07:52.542Z,5.29
2018-03-06T01:08:52.242Z,5.23
2018-03-06T01:09:52.242Z,5.26
2018-03-06T01:10:53.108Z,5.35
2018-03-06T01:11:52.565Z,5.32
2018-03-06T01:12:52.286Z,5.35
2018-03-06T01:13:53.340Z,5.2
2018-03-06T01:14:52.329Z,5.1
2018-03-06T01:15:52.355Z,5.14
2018-03-06T01:16:52.354Z,5.23
2018-03-06T01:17:53.179Z,5.18
2018-03-06T01:18:52.679Z,5.17
2018-03-06T01:19:52.379Z,5.08
2018-03-06T01:20:52.694Z,5.25
2018-03-06T01:21:54.135Z,5.18
2018-03-06T01:22:52.438Z,5.33
2018-03-06T01:23:52.715Z,5.36
2018-03-06T01:24:53.247Z,5.38
2018-03-06T01:25:52.483Z,5.26
2018-03-06T01:26:52.489Z,5.3
2018-03-06T01:27:52.781Z,5.39
2018-03-06T01:28:54.292Z,5.29
2018-03-06T01:29:52.826Z,5.32
2018-03-06T01:30:52.837Z,5.38
2018-03-06T01:31:54.314Z,5.41
2018-03-06T01:32:52.854Z,5.28
2018-03-06T01:33:52.878Z,5.3
2018-03-06T01:34:54.576Z,5.32
2018-03-06T01:35:52.610Z,5.38
2018-03-06T01:36:52.366Z,5.35
2018-03-06T01:37:52.655Z,5.29
2018-03-06T01:38:52.683Z,5.32
2018-03-06T01:39:52.686Z,5.33
2018-03-06T01:40:52.971Z,5.3
2018-03-06T01:41:54.670Z,5.32
2018-03-06T01:42:52.712Z,5.33
2018-03-06T01:43:53.007Z,5.28
2018-03-06T01:44:54.882Z,5.33
2018-03-06T01:45:53.044Z,5.26
2018-03-06T01:46:52.799Z,5.33
2018-03-06T01:47:53.742Z,5.36
2018-03-06T01:48:52.805Z,5.43
2018-03-06T01:49:52.836Z,5.47
2018-03-06T01:50:52.834Z,5.43
2018-03-06T01:51:54.806Z,5.43
2018-03-06T01:52:53.143Z,5.48
2018-03-06T01:53:52.893Z,5.43
2018-03-06T01:54:54.709Z,5.53
2018-03-06T01:55:53.196Z,5.48
2018-03-06T01:56:52.922Z,5.48
2018-03-06T01:57:53.945Z,5.53
2018-03-06T01:58:52.960Z,5.48
2018-03-06T01:59:53.310Z,5.59
2018-03-06T02:00:52.991Z,5.62
2018-03-06T02:01:54.680Z,5.47
2018-03-06T02:02:53.010Z,5.57
2018-03-06T02:03:53.307Z,5.5
2018-03-06T02:04:54.198Z,5.59
2018-03-06T02:05:53.343Z,5.46
2018-03-06T02:06:53.356Z,5.51
2018-03-06T02:07:53.111Z,5.56
2018-03-06T02:08:54.734Z,5.54
2018-03-06T02:09:53.127Z,5.54
2018-03-06T02:10:53.418Z,5.57
2018-03-06T02:11:53.808Z,5.57
2018-03-06T02:12:54.008Z,5.53
2018-03-06T02:13:53.163Z,5.48
2018-03-06T02:14:53.513Z,5.44
2018-03-06T02:15:53.807Z,5.44
2018-03-06T02:16:52.942Z,5.46
2018-03-06T02:17:53.535Z,5.47
2018-03-06T02:18:53.517Z,5.62
2018-03-06T02:19:55.266Z,5.57
2018-03-06T02:20:53.282Z,5.64
2018-03-06T02:21:53.581Z,5.73
2018-03-06T02:22:53.595Z,5.71
2018-03-06T02:23:53.739Z,5.66
2018-03-06T02:24:53.336Z,5.8
2018-03-06T02:25:53.346Z,5.68
2018-03-06T02:26:55.140Z,5.72
2018-03-06T02:27:53.370Z,5.68
2018-03-06T02:28:53.709Z,5.69
2018-03-06T02:29:53.450Z,5.64
2018-03-06T02:30:55.547Z,5.66
2018-03-06T02:31:53.713Z,5.65
2018-03-06T02:32:53.711Z,5.76
2018-03-06T02:33:53.760Z,5.76
2018-03-06T02:34:55.072Z,5.79
2018-03-06T02:35:53.768Z,5.84
2018-03-06T02:36:53.496Z,5.79
2018-03-06T02:37:53.792Z,5.76
2018-03-06T02:38:54.205Z,5.71
2018-03-06T02:39:53.545Z,5.71
2018-03-06T02:40:53.846Z,5.68
2018-03-06T02:41:54.169Z,5.82
2018-03-06T02:42:53.877Z,5.71
2018-03-06T02:43:53.869Z,5.65
2018-03-06T02:44:53.991Z,5.64
2018-03-06T02:45:53.621Z,5.72
2018-03-06T02:46:53.374Z,5.68
2018-03-06T02:47:53.952Z,5.64
2018-03-06T02:48:54.436Z,5.66
2018-03-06T02:49:53.963Z,5.66
2018-03-06T02:50:54.003Z,5.53
2018-03-06T02:51:53.712Z,5.54
2018-03-06T02:52:55.633Z,5.66
2018-03-06T02:53:53.741Z,5.65
2018-03-06T02:54:54.046Z,5.64
2018-03-06T02:55:54.700Z,5.64
2018-03-06T02:56:53.785Z,5.65
2018-03-06T02:57:54.096Z,5.65
2018-03-06T02:58:54.080Z,5.53
2018-03-06T02:59:54.655Z,5.51
2018-03-06T03:00:54.098Z,5.57
2018-03-06T03:01:54.327Z,5.59
2018-03-06T03:02:54.351Z,5.57
2018-03-06T03:03:53.896Z,5.62
2018-03-06T03:04:53.947Z,5.51
2018-03-06T03:05:54.205Z,5.47
2018-03-06T03:06:53.660Z,5.54
2018-03-06T03:07:53.939Z,5.48
2018-03-06T03:08:53.689Z,5.43
2018-03-06T03:09:54.240Z,5.47
2018-03-06T03:10:53.716Z,5.48
2018-03-06T03:11:54.012Z,5.51
2018-03-06T03:12:54.316Z,5.5
2018-03-06T03:13:54.039Z,5.56
2018-03-06T03:14:55.209Z,5.44
2018-03-06T03:15:53.790Z,5.36
2018-03-06T03:16:54.341Z,5.39
2018-03-06T03:17:54.780Z,5.41
2018-03-06T03:18:54.385Z,5.35
2018-03-06T03:19:54.381Z,5.35
2018-03-06T03:20:54.390Z,5.41
2018-03-06T03:21:55.168Z,5.46
2018-03-06T03:22:54.159Z,5.44
2018-03-06T03:23:54.448Z,5.39
2018-03-06T03:24:55.380Z,5.41
2018-03-06T03:25:54.193Z,5.36
2018-03-06T03:26:54.493Z,5.33
2018-03-06T03:27:54.535Z,5.28
2018-03-06T03:28:53.974Z,5.29
2018-03-06T03:29:54.575Z,5.3
2018-03-06T03:30:54.540Z,5.21
2018-03-06T03:31:55.031Z,5.1
2018-03-06T03:32:54.030Z,5.04
2018-03-06T03:33:54.584Z,5.25
2018-03-06T03:34:55.145Z,5.21
2018-03-06T03:35:54.595Z,5.21
2018-03-06T03:36:54.613Z,5.14
2018-03-06T03:37:56.062Z,5.17
2018-03-06T03:38:54.384Z,5.15
2018-03-06T03:39:54.665Z,5.11
2018-03-06T03:40:55.397Z,5.12
2018-03-06T03:41:54.422Z,5.2
2018-03-06T03:42:54.461Z,5.21
2018-03-06T03:43:56.461Z,5.25
2018-03-06T03:44:54.755Z,5.26
2018-03-06T03:45:54.768Z,5.2
2018-03-06T03:46:55.708Z,5.15
2018-03-06T03:47:54.502Z,5.25
2018-03-06T03:48:54.260Z,5.25
2018-03-06T03:49:54.816Z,5.28
2018-03-06T03:50:55.367Z,5.2
2018-03-06T03:51:54.851Z,5.25
2018-03-06T03:52:54.889Z,5.3
2018-03-06T03:53:56.456Z,5.18
2018-03-06T03:54:54.881Z,5.07
2018-03-06T03:55:54.896Z,5.18
2018-03-06T03:56:54.638Z,5.17
2018-03-06T03:57:54.916Z,5.23
2018-03-06T03:58:54.678Z,5.17
2018-03-06T03:59:54.944Z,5.2
2018-03-06T04:00:55.493Z,5.25
2018-03-06T04:01:55.266Z,5.33
2018-03-06T04:02:54.725Z,5.32
2018-03-06T04:03:56.718Z,5.28
2018-03-06T04:04:54.791Z,5.17
2018-03-06T04:05:54.492Z,5.17
2018-03-06T04:06:54.790Z,5.25
2018-03-06T04:07:54.787Z,5.28
2018-03-06T04:08:55.206Z,5.21
2018-03-06T04:09:55.622Z,5.25
2018-03-06T04:10:55.102Z,5.25
2018-03-06T04:11:54.857Z,5.11
2018-03-06T04:12:56.307Z,5.1
2018-03-06T04:13:54.870Z,5.05
2018-03-06T04:14:54.907Z,5.14
2018-03-06T04:15:56.202Z,5.02
2018-03-06T04:16:55.205Z,5.11
2018-03-06T04:17:54.677Z,5.23
2018-03-06T04:18:54.942Z,5.1
2018-03-06T04:19:56.900Z,5.23
2018-03-06T04:20:54.976Z,5.1
2018-03-06T04:21:54.991Z,5.02
2018-03-06T04:22:55.774Z,5.11
2018-03-06T04:23:55.281Z,5.07
2018-03-06T04:24:55.297Z,5.12
2018-03-06T04:25:55.922Z,5.05
2018-03-06T04:26:55.310Z,5.05
2018-03-06T04:27:54.792Z,5.1
2018-03-06T04:28:55.366Z,5.1
2018-03-06T04:29:54.824Z,5.14
2018-03-06T04:30:54.840Z,5.11
2018-03-06T04:31:55.393Z,5.21
2018-03-06T04:32:57.197Z,5.2
2018-03-06T04:33:55.156Z,5.2
2018-03-06T04:34:55.166Z,5.17
2018-03-06T04:35:56.405Z,5.15
2018-03-06T04:36:55.467Z,5.2
2018-03-06T04:37:55.488Z,5.1
2018-03-06T04:38:55.516Z,5.05
2018-03-06T04:39:54.964Z,5.11
2018-03-06T04:40:55.521Z,5.11
2018-03-06T04:41:55.277Z,5.1
2018-03-06T04:42:56.118Z,5.21
2018-03-06T04:43:55.298Z,5.12
2018-03-06T04:44:55.300Z,5.17
2018-03-06T04:45:55.600Z,5.2
2018-03-06T04:46:56.106Z,5.11
2018-03-06T04:47:55.343Z,5.11
2018-03-06T04:48:55.415Z,5.1
2018-03-06T04:49:55.661Z,5.02
2018-03-06T04:50:55.657Z,4.99
2018-03-06T04:51:55.396Z,5
2018-03-06T04:52:55.421Z,5.11
2018-03-06T04:53:57.468Z,4.9
2018-03-06T04:54:55.737Z,4.96
2018-03-06T04:55:55.730Z,5.04
2018-03-06T04:56:55.731Z,5.1
2018-03-06T04:57:56.937Z,5.08
2018-03-06T04:58:55.522Z,5.08
2018-03-06T04:59:55.807Z,4.94
2018-03-06T05:00:55.260Z,5.08
2018-03-06T05:01:55.559Z,4.94
2018-03-06T05:02:55.573Z,5
2018-03-06T05:03:55.620Z,4.96
2018-03-06T05:04:57.608Z,4.99
2018-03-06T05:05:55.885Z,4.97
2018-03-06T05:06:55.902Z,5.02
2018-03-06T05:07:55.356Z,5.12
2018-03-06T05:08:56.471Z,5.08
2018-03-06T05:09:55.934Z,5.14
2018-03-06T05:10:55.938Z,5.11
2018-03-06T05:11:56.346Z,5.15
2018-03-06T05:12:55.696Z,5.23
2018-03-06T05:13:55.717Z,5.23
2018-03-06T05:14:56.215Z,5.14
2018-03-06T05:15:56.017Z,5.15
2018-03-06T05:16:56.022Z,5.07
2018-03-06T05:17:55.775Z,5.04
2018-03-06T05:18:56.639Z,5.07
2018-03-06T05:19:56.071Z,5.08
2018-03-06T05:20:55.822Z,5.05
2018-03-06T05:21:57.723Z,5.11
2018-03-06T05:22:56.377Z,5.15
2018-03-06T05:23:56.167Z,5.11
2018-03-06T05:24:56.155Z,5.11
2018-03-06T05:25:57.766Z,5.1
2018-03-06T05:26:56.271Z,4.99
2018-03-06T05:27:56.181Z,5
2018-03-06T05:28:55.650Z,5.04
2018-03-06T05:29:57.667Z,4.93
2018-03-06T05:30:55.943Z,5.08
2018-03-06T05:31:56.250Z,4.99
2018-03-06T05:32:56.243Z,5.02
2018-03-06T05:33:56.902Z,5.05
2018-03-06T05:34:56.274Z,5.05
2018-03-06T05:35:56.285Z,5.1
2018-03-06T05:36:56.031Z,5.04
2018-03-06T05:37:57.035Z,5.04
2018-03-06T05:38:56.110Z,4.93
2018-03-06T05:39:56.343Z,4.92
2018-03-06T05:40:56.378Z,4.93
2018-03-06T05:41:56.905Z,4.97
2018-03-06T05:42:56.386Z,4.93
2018-03-06T05:43:56.145Z,4.93
2018-03-06T05:44:56.439Z,4.73
2018-03-06T05:45:57.913Z,4.73
2018-03-06T05:46:56.186Z,4.87
2018-03-06T05:47:56.455Z,4.82
2018-03-06T05:48:57.098Z,4.87
2018-03-06T05:49:56.509Z,4.93
2018-03-06T05:50:56.495Z,4.93
2018-03-06T05:51:56.254Z,4.99
2018-03-06T05:52:57.172Z,5.07
2018-03-06T05:53:56.594Z,5.08
2018-03-06T05:54:56.542Z,5.1
2018-03-06T05:55:56.552Z,4.99
2018-03-06T05:56:58.577Z,5.05
2018-03-06T05:57:56.314Z,5.17
2018-03-06T05:58:56.724Z,5.15
2018-03-06T05:59:56.351Z,5.12
2018-03-06T06:00:58.223Z,5.14
2018-03-06T06:01:56.370Z,5.02
2018-03-06T06:02:56.664Z,5.05
2018-03-06T06:03:57.226Z,5.12
2018-03-06T06:04:56.420Z,5.14
2018-03-06T06:05:56.709Z,5.18
2018-03-06T06:06:58.545Z,5.14
2018-03-06T06:07:56.471Z,5.17
2018-03-06T06:08:56.809Z,5.14
2018-03-06T06:09:56.488Z,5.12
2018-03-06T06:10:56.232Z,5.18
2018-03-06T06:11:56.799Z,5.18
2018-03-06T06:12:58.226Z,5.26
2018-03-06T06:13:56.528Z,5.26
2018-03-06T06:14:56.800Z,5.23
2018-03-06T06:15:56.809Z,5.3
2018-03-06T06:16:56.828Z,5.32
2018-03-06T06:17:56.852Z,5.29
2018-03-06T06:18:56.599Z,5.28
2018-03-06T06:19:56.617Z,5.3
2018-03-06T06:20:56.884Z,5.3
2018-03-06T06:21:56.390Z,5.35
2018-03-06T06:22:56.910Z,5.41
2018-03-06T06:23:56.978Z,5.39
2018-03-06T06:24:56.683Z,5.47
2018-03-06T06:25:56.754Z,5.44
2018-03-06T06:26:56.969Z,5.39
2018-03-06T06:27:56.729Z,5.41
2018-03-06T06:28:56.997Z,5.47
2018-03-06T06:29:56.758Z,5.48
2018-03-06T06:30:57.029Z,5.43
2018-03-06T06:31:57.056Z,5.44
2018-03-06T06:32:56.823Z,5.51
2018-03-06T06:33:56.812Z,5.57
2018-03-06T06:34:56.830Z,5.48
2018-03-06T06:35:56.592Z,5.57
2018-03-06T06:36:56.862Z,5.66
2018-03-06T06:37:57.128Z,5.64
2018-03-06T06:38:57.199Z,5.61
2018-03-06T06:39:57.216Z,5.59
2018-03-06T06:40:56.914Z,5.64
2018-03-06T06:41:56.932Z,5.59
2018-03-06T06:42:57.206Z,5.59
2018-03-06T06:43:56.707Z,5.64
2018-03-06T06:44:57.230Z,5.66
2018-03-06T06:45:57.282Z,5.66
2018-03-06T06:46:57.043Z,5.72
2018-03-06T06:47:57.339Z,5.73
2018-03-06T06:48:57.036Z,5.75
2018-03-06T06:49:57.044Z,5.84
2018-03-06T06:50:57.313Z,5.73
2018-03-06T06:51:57.336Z,5.84
2018-03-06T06:52:57.343Z,5.91
2018-03-06T06:53:57.102Z,5.99
2018-03-06T06:54:57.418Z,5.89
2018-03-06T06:55:57.385Z,6.02
2018-03-06T06:56:57.142Z,6.01
2018-03-06T06:57:57.418Z,5.9
2018-03-06T06:58:57.477Z,5.89
2018-03-06T06:59:57.441Z,5.97
2018-03-06T07:00:57.201Z,6.02
2018-03-06T07:01:57.215Z,6.12
2018-03-06T07:02:57.487Z,6.07
2018-03-06T07:03:57.245Z,6.07
2018-03-06T07:04:57.514Z,6.11
2018-03-06T07:05:57.271Z,6.09
2018-03-06T07:06:57.539Z,6.07
2018-03-06T07:07:57.300Z,6.02
2018-03-06T07:08:57.321Z,6.14
2018-03-06T07:09:57.637Z,6.12
2018-03-06T07:10:57.346Z,6.04
2018-03-06T07:11:57.617Z,6.11
2018-03-06T07:12:57.635Z,6.08
2018-03-06T07:13:57.393Z,6.11
2018-03-06T07:14:57.404Z,6.11
2018-03-06T07:15:57.418Z,6.09
2018-03-06T07:16:57.438Z,6.11
2018-03-06T07:17:57.453Z,6.2
2018-03-06T07:18:57.724Z,6.35
2018-03-06T07:19:57.743Z,6.36
2018-03-06T07:20:57.751Z,6.46
2018-03-06T07:21:57.766Z,6.48
2018-03-06T07:22:57.783Z,6.48
2018-03-06T07:23:57.796Z,6.48
2018-03-06T07:24:57.962Z,6.51
2018-03-06T07:25:57.316Z,6.54
2018-03-06T07:26:57.589Z,6.62
2018-03-06T07:27:57.600Z,6.7
2018-03-06T07:28:57.868Z,6.67
2018-03-06T07:29:57.892Z,6.7
2018-03-06T07:30:57.891Z,6.74
2018-03-06T07:31:57.650Z,6.72
2018-03-06T07:32:57.669Z,6.79
2018-03-06T07:33:57.682Z,6.78
2018-03-06T07:34:58.010Z,6.72
2018-03-06T07:35:57.969Z,6.77
2018-03-06T07:36:57.729Z,6.79
2018-03-06T07:37:57.743Z,6.72
2018-03-06T07:38:57.759Z,6.64
2018-03-06T07:39:57.825Z,6.67
2018-03-06T07:40:58.047Z,6.75
2018-03-06T07:41:57.808Z,6.54
2018-03-06T07:42:58.082Z,6.46
2018-03-06T07:43:58.089Z,6.35
2018-03-06T07:44:57.851Z,6.48
2018-03-06T07:45:57.874Z,6.42
2018-03-06T07:46:57.881Z,6.51
2018-03-06T07:47:58.158Z,6.51
2018-03-06T07:48:58.216Z,6.54
2018-03-06T07:49:57.927Z,6.52
2018-03-06T07:50:58.200Z,6.69
2018-03-06T07:51:58.218Z,6.74
2018-03-06T07:52:57.973Z,6.75
2018-03-06T07:53:57.993Z,6.78
2018-03-06T07:54:58.307Z,6.87
2018-03-06T07:55:58.022Z,6.92
2018-03-06T07:56:58.039Z,6.87
2018-03-06T07:57:58.056Z,6.87
2018-03-06T07:58:58.066Z,6.96
2018-03-06T07:59:58.079Z,7.11
2018-03-06T08:00:58.353Z,7.2
2018-03-06T08:01:58.376Z,7.05
2018-03-06T08:02:58.378Z,6.72
2018-03-06T08:03:58.144Z,6.75
2018-03-06T08:04:58.162Z,6.62
2018-03-06T08:05:58.425Z,6.57
2018-03-06T08:06:57.928Z,6.69
2018-03-06T08:07:58.200Z,6.69
2018-03-06T08:08:57.963Z,6.85
2018-03-06T08:09:58.235Z,6.7
2018-03-06T08:10:57.994Z,6.75
2018-03-06T08:11:58.626Z,6.88
2018-03-06T08:12:58.531Z,6.87
2018-03-06T08:13:58.548Z,6.88
2018-03-06T08:14:58.310Z,6.78
2018-03-06T08:15:58.330Z,6.92
2018-03-06T08:16:58.088Z,6.96
2018-03-06T08:17:58.355Z,7.02
2018-03-06T08:18:58.645Z,7.05
2018-03-06T08:19:58.645Z,7.05
2018-03-06T08:20:58.656Z,7.11
2018-03-06T08:21:58.764Z,7.14
2018-03-06T08:22:58.683Z,7.02
2018-03-06T08:23:58.918Z,6.95
2018-03-06T08:24:58.709Z,6.87
2018-03-06T08:25:58.730Z,6.95
2018-03-06T08:26:58.547Z,7.1
2018-03-06T08:27:58.765Z,6.93
2018-03-06T08:28:58.775Z,7.02
2018-03-06T08:29:58.832Z,7.31
2018-03-06T08:30:58.829Z,7.17
2018-03-06T08:31:58.570Z,7.2
2018-03-06T08:32:58.854Z,7.42
2018-03-06T08:33:58.856Z,7.4
2018-03-06T08:34:58.618Z,7.48
2018-03-06T08:35:58.896Z,7.31
2018-03-06T08:36:58.927Z,7.31
2018-03-06T08:37:58.925Z,7.14
2018-03-06T08:38:58.931Z,7
2018-03-06T08:39:58.944Z,7.14
2018-03-06T08:40:58.735Z,7.11
2018-03-06T08:41:59.024Z,7.07
2018-03-06T08:42:58.742Z,7
2018-03-06T08:43:59.006Z,6.84
2018-03-06T08:44:58.768Z,6.79
2018-03-06T08:45:58.789Z,6.52
2018-03-06T08:46:59.060Z,6.44
2018-03-06T08:47:59.069Z,6.51
2018-03-06T08:48:58.851Z,6.74
2018-03-06T08:49:58.852Z,6.7
2018-03-06T08:50:59.125Z,6.77
2018-03-06T08:51:59.233Z,6.81
2018-03-06T08:52:59.151Z,6.82
2018-03-06T08:53:59.162Z,6.96
2018-03-06T08:54:59.266Z,6.89
2018-03-06T08:55:59.197Z,6.59
2018-03-06T08:56:59.365Z,6.57
2018-03-06T08:57:58.974Z,6.41
2018-03-06T08:58:58.991Z,6.33
2018-03-06T08:59:59.001Z,6.08
2018-03-06T09:00:58.784Z,6.28
2018-03-06T09:01:59.289Z,6.35
2018-03-06T09:02:59.302Z,6.07
2018-03-06T09:03:59.322Z,6.27
2018-03-06T09:04:59.081Z,6.49
2018-03-06T09:05:59.097Z,6.78
2018-03-06T09:06:59.416Z,6.74
2018-03-06T09:07:59.127Z,6.96
2018-03-06T09:08:59.401Z,7.05
2018-03-06T09:09:59.418Z,7.13
2018-03-06T09:10:59.180Z,7.2
2018-03-06T09:11:59.242Z,7.32
2018-03-06T09:12:58.949Z,7.4
2018-03-06T09:13:59.219Z,7.39
2018-03-06T09:14:59.490Z,7.2
2018-03-06T09:15:59.250Z,6.72
2018-03-06T09:16:59.266Z,6.62
2018-03-06T09:17:59.535Z,6.46
2018-03-06T09:18:59.300Z,6.6
2018-03-06T09:19:59.054Z,6.54
2018-03-06T09:20:59.577Z,6.74
2018-03-06T09:21:59.608Z,6.95
2018-03-06T09:22:59.608Z,7.11
2018-03-06T09:23:59.622Z,7.06
2018-03-06T09:24:59.138Z,7.13
2018-03-06T09:25:59.668Z,6.88
2018-03-06T09:26:59.727Z,6.81
2018-03-06T09:27:59.440Z,6.87
2018-03-06T09:28:59.716Z,6.95
2018-03-06T09:29:59.733Z,7.11
2018-03-06T09:30:59.491Z,7.38
2018-03-06T09:31:59.505Z,7.42
2018-03-06T09:32:59.266Z,7.54
2018-03-06T09:33:59.538Z,7.67
2018-03-06T09:34:59.807Z,7.85
2018-03-06T09:35:59.574Z,7.9
2018-03-06T09:37:00.051Z,8.05
2018-03-06T09:37:59.849Z,8.16
2018-03-06T09:38:59.362Z,7.85
2018-03-06T09:39:59.635Z,7.91
2018-03-06T09:40:59.651Z,7.9
2018-03-06T09:41:59.512Z,7.98
2018-03-06T09:42:59.945Z,8.31
2018-03-06T09:43:59.708Z,8.3
2018-03-06T09:44:59.972Z,8.55
2018-03-06T09:45:59.732Z,8.56
2018-03-06T09:47:00.004Z,8.67
2018-03-06T09:47:59.767Z,8.82
2018-03-06T09:48:59.785Z,8.61
2018-03-06T09:49:59.547Z,8.28
2018-03-06T09:50:59.814Z,8.28
2018-03-06T09:51:59.885Z,8.37
2018-03-06T09:52:59.853Z,8.15
2018-03-06T09:53:59.612Z,8.16
2018-03-06T09:55:00.137Z,8.26
2018-03-06T09:56:00.151Z,8.16
2018-03-06T09:57:00.172Z,8.38
2018-03-06T09:58:00.199Z,8.27
2018-03-06T09:58:59.957Z,8.31
2018-03-06T09:59:59.713Z,8.23
2018-03-06T10:00:59.996Z,8.31
2018-03-06T10:02:00.264Z,8.49
2018-03-06T10:03:00.350Z,8.48
2018-03-06T10:04:00.302Z,8.51
2018-03-06T10:05:00.063Z,8.49
2018-03-06T10:06:00.346Z,8.46
2018-03-06T10:07:00.391Z,8.41
2018-03-06T10:08:00.110Z,8.44
2018-03-06T10:08:59.868Z,8.28
2018-03-06T10:10:00.390Z,8.08
2018-03-06T10:11:00.413Z,8.03
2018-03-06T10:12:00.174Z,8.05
2018-03-06T10:13:00.445Z,7.88
2018-03-06T10:14:00.458Z,7.8
2018-03-06T10:14:59.968Z,7.73
2018-03-06T10:16:00.238Z,7.67
2018-03-06T10:17:00.314Z,7.85
2018-03-06T10:18:00.267Z,7.88
2018-03-06T10:19:00.563Z,7.72
2018-03-06T10:20:00.572Z,7.77
2018-03-06T10:21:00.589Z,7.85
2018-03-06T10:22:00.385Z,7.88
2018-03-06T10:23:00.357Z,7.88
2018-03-06T10:24:00.368Z,8.05
2018-03-06T10:25:00.390Z,7.93
2018-03-06T10:26:00.669Z,7.69
2018-03-06T10:27:00.162Z,7.58
2018-03-06T10:28:00.432Z,7.6
2018-03-06T10:29:00.701Z,7.45
2018-03-06T10:30:00.719Z,7.39
2018-03-06T10:31:00.495Z,7.03
2018-03-06T10:32:00.500Z,6.87
2018-03-06T10:33:00.258Z,6.67
2018-03-06T10:34:00.820Z,6.87
2018-03-06T10:35:00.794Z,6.74
2018-03-06T10:36:00.815Z,6.52
2018-03-06T10:37:00.624Z,6.75
2018-03-06T10:38:00.846Z,6.3
2018-03-06T10:39:00.863Z,6.41
2018-03-06T10:40:00.879Z,6.49
2018-03-06T10:41:00.636Z,6.66
2018-03-06T10:42:00.751Z,6.59
2018-03-06T10:43:00.933Z,6.74
2018-03-06T10:44:00.943Z,6.74
2018-03-06T10:45:00.954Z,6.85
2018-03-06T10:46:00.969Z,6.99
2018-03-06T10:47:00.994Z,6.85
2018-03-06T10:48:00.749Z,6.93
2018-03-06T10:49:00.508Z,7.13
2018-03-06T10:50:01.029Z,7.17
2018-03-06T10:51:00.790Z,7.33
2018-03-06T10:52:00.602Z,7.28
2018-03-06T10:53:01.073Z,7.32
2018-03-06T10:54:01.095Z,7.33
2018-03-06T10:55:01.111Z,7.4
2018-03-06T10:56:01.132Z,7.54
2018-03-06T10:57:01.138Z,7.58
2018-03-06T10:58:00.900Z,7.58
2018-03-06T10:59:01.169Z,7.6
2018-03-06T11:00:00.931Z,7.7
2018-03-06T11:01:00.958Z,7.48
2018-03-06T11:02:01.213Z,7.58
2018-03-06T11:03:00.977Z,7.58
2018-03-06T11:04:01.250Z,7.43
2018-03-06T11:05:01.008Z,7.43
2018-03-06T11:06:01.018Z,7.69
2018-03-06T11:07:01.086Z,7.57
2018-03-06T11:08:01.304Z,7.73
2018-03-06T11:09:01.073Z,7.87
2018-03-06T11:10:01.346Z,7.54
2018-03-06T11:11:01.100Z,7.58
2018-03-06T11:12:01.369Z,7.7
2018-03-06T11:13:01.406Z,7.79
2018-03-06T11:14:01.406Z,7.83
2018-03-06T11:15:01.420Z,7.83
2018-03-06T11:16:01.182Z,7.88
2018-03-06T11:17:01.193Z,7.87
2018-03-06T11:18:01.467Z,7.85
2018-03-06T11:19:01.232Z,7.9
2018-03-06T11:20:01.509Z,8.01
2018-03-06T11:21:01.261Z,8.1
2018-03-06T11:22:01.544Z,8.06
2018-03-06T11:23:01.038Z,8.08
2018-03-06T11:24:01.561Z,8.12
2018-03-06T11:25:01.634Z,7.97
2018-03-06T11:26:01.334Z,7.9
2018-03-06T11:27:01.356Z,7.87
2018-03-06T11:28:01.414Z,7.39
2018-03-06T11:29:01.644Z,7.25
2018-03-06T11:30:01.145Z,7.18
2018-03-06T11:31:01.415Z,7.25
2018-03-06T11:32:01.435Z,7.38
2018-03-06T11:33:01.714Z,7.57
2018-03-06T11:34:01.466Z,7.66
2018-03-06T11:35:01.736Z,7.6
2018-03-06T11:36:01.498Z,7.63
2018-03-06T11:37:01.518Z,7.73
2018-03-06T11:38:01.529Z,7.82
2018-03-06T11:39:01.801Z,7.93
2018-03-06T11:40:01.609Z,7.88
2018-03-06T11:41:01.585Z,7.87
2018-03-06T11:42:01.613Z,8.1
2018-03-06T11:43:01.357Z,8.08
2018-03-06T11:44:01.373Z,8.05
2018-03-06T11:45:01.659Z,8.01
2018-03-06T11:46:01.915Z,8.08
2018-03-06T11:47:01.673Z,8.2
2018-03-06T11:48:01.689Z,8.09
2018-03-06T11:49:01.707Z,8.16
2018-03-06T11:50:01.722Z,8.28
2018-03-06T11:51:01.483Z,8.38
2018-03-06T11:52:02.010Z,8.37
2018-03-06T11:53:02.029Z,8.46
2018-03-06T11:54:02.047Z,8.52
2018-03-06T11:55:01.862Z,8.6
2018-03-06T11:56:01.874Z,8.71
2018-03-06T11:57:02.089Z,8.71
2018-03-06T11:58:01.855Z,8.6
2018-03-06T11:59:01.870Z,8.48
2018-03-06T12:00:02.191Z,8.42
2018-03-06T12:01:01.905Z,8.27
2018-03-06T12:02:02.343Z,8.08
2018-03-06T12:03:01.934Z,8.08
2018-03-06T12:04:01.986Z,8.06
2018-03-06T12:05:01.967Z,7.94
2018-03-06T12:06:01.987Z,7.66
2018-03-06T12:07:02.009Z,7.35
2018-03-06T12:08:02.019Z,7.47
2018-03-06T12:09:01.779Z,7.56
2018-03-06T12:10:02.108Z,7.56
2018-03-06T12:11:02.090Z,7.73
2018-03-06T12:12:02.388Z,7.45
2018-03-06T12:13:02.357Z,7.42
2018-03-06T12:14:02.374Z,7.35
2018-03-06T12:15:02.386Z,7.29
2018-03-06T12:16:01.890Z,7.06
2018-03-06T12:17:02.422Z,7.28
2018-03-06T12:18:02.440Z,7.29
2018-03-06T12:19:02.447Z,7.18
2018-03-06T12:20:02.213Z,7.36
2018-03-06T12:21:02.507Z,7.38
2018-03-06T12:22:02.502Z,7.42
2018-03-06T12:23:02.256Z,7.57
2018-03-06T12:24:02.534Z,7.79
2018-03-06T12:25:02.597Z,7.87
2018-03-06T12:26:02.565Z,7.94
2018-03-06T12:27:02.321Z,7.93
2018-03-06T12:28:02.593Z,7.95
2018-03-06T12:29:02.607Z,8.01
2018-03-06T12:30:02.430Z,8.12
2018-03-06T12:31:02.667Z,8.1
2018-03-06T12:32:02.660Z,7.7
2018-03-06T12:33:02.692Z,7.58
2018-03-06T12:34:02.694Z,7.73
2018-03-06T12:35:02.708Z,7.94
2018-03-06T12:36:02.474Z,8.03
2018-03-06T12:37:02.742Z,8.08
2018-03-06T12:38:02.768Z,8.03
2018-03-06T12:39:02.265Z,7.93
2018-03-06T12:40:02.587Z,8.09
2018-03-06T12:41:02.811Z,8.24
2018-03-06T12:42:02.571Z,8.3
2018-03-06T12:43:02.850Z,8.1
2018-03-06T12:44:02.859Z,8.12
2018-03-06T12:45:02.870Z,8.24
2018-03-06T12:46:02.887Z,8.34
2018-03-06T12:47:02.653Z,8.38
2018-03-06T12:48:02.671Z,8.37
2018-03-06T12:49:02.686Z,8.28
2018-03-06T12:50:02.701Z,8.41
2018-03-06T12:51:02.725Z,8.33
2018-03-06T12:52:02.481Z,8.28
2018-03-06T12:53:02.753Z,8.49
2018-03-06T12:54:02.516Z,8.6
2018-03-06T12:55:03.007Z,8.15
2018-03-06T12:56:02.812Z,8.18
2018-03-06T12:57:02.822Z,8.27
2018-03-06T12:58:02.583Z,8.34
2018-03-06T12:59:02.857Z,8.58
2018-03-06T13:00:02.622Z,8.71
2018-03-06T13:01:03.140Z,8.79
2018-03-06T13:02:02.904Z,8.78
2018-03-06T13:03:03.181Z,8.87
2018-03-06T13:04:03.192Z,8.79
2018-03-06T13:05:02.705Z,8.95
2018-03-06T13:06:02.729Z,9.04
2018-03-06T13:07:02.734Z,8.58
2018-03-06T13:08:03.014Z,8.76
2018-03-06T13:09:02.773Z,8.58
2018-03-06T13:10:03.039Z,8.7
2018-03-06T13:11:03.056Z,8.71
2018-03-06T13:12:02.870Z,8.56
2018-03-06T13:13:02.838Z,8.67
2018-03-06T13:14:03.363Z,8.48
2018-03-06T13:15:03.144Z,8.37
2018-03-06T13:16:03.400Z,8.16
2018-03-06T13:17:02.908Z,8.16
2018-03-06T13:18:03.433Z,8.16
2018-03-06T13:19:03.453Z,8.16
2018-03-06T13:20:03.217Z,8.06
2018-03-06T13:21:03.487Z,8.09
2018-03-06T13:22:03.245Z,8